Time;durP1;ratioP1;P1;durP2;ratioP2;P2;SDS_P1;SDS_P2;PMS_P1;PMS_P2;Temp;Humidity;BMP_temperature;BMP_pressure;BME280_temperature;BME280_humidity;BME280_pressure;Samples;Min_cycle;Max_cycle;Signal;HPM_P1;HPM_P2
2021/03/09 00:00:31;0.00;0.00;0.62;0.00;0.00;0.62;1.70;0.70;;;24.00;22.50;;;;;;2244862;61;20374;-60
2021/03/09 00:03:17;0.00;0.00;0.62;0.00;0.00;0.62;1.80;1.00;;;24.00;22.50;;;;;;2242246;61;20700;-60
2021/03/09 00:06:05;0.00;0.00;0.62;0.00;0.00;0.62;5.23;1.20;;;24.00;22.50;;;;;;2244453;61;20366;-61
2021/03/09 00:08:55;0.00;0.00;0.62;0.00;0.00;0.62;1.60;1.23;;;24.00;22.50;;;;;;2245223;61;20597;-60
2021/03/09 00:11:40;0.00;0.00;0.62;0.00;0.00;0.62;3.20;1.00;;;24.00;22.50;;;;;;2247944;61;20416;-61
2021/03/09 00:14:24;0.00;0.00;0.62;0.00;0.00;0.62;1.40;0.90;;;24.00;22.50;;;;;;2245785;61;20405;-61
2021/03/09 00:17:09;0.00;0.00;0.62;0.00;0.00;0.62;8.37;1.07;;;24.00;22.50;;;;;;2245174;61;20361;-60
2021/03/09 00:19:53;0.00;0.00;0.62;0.00;0.00;0.62;1.97;1.00;;;24.00;22.40;;;;;;2244721;61;20400;-62
2021/03/09 00:22:38;0.00;0.00;0.62;0.00;0.00;0.62;2.40;0.83;;;24.00;22.30;;;;;;2245612;61;20368;-62
2021/03/09 00:25:23;0.00;0.00;0.62;0.00;0.00;0.62;1.40;1.00;;;24.00;22.30;;;;;;2245704;61;20665;-62
2021/03/09 00:28:08;0.00;0.00;0.62;0.00;0.00;0.62;2.50;1.17;;;24.00;22.30;;;;;;2245478;61;20611;-61
2021/03/09 00:30:53;0.00;0.00;0.62;0.00;0.00;0.62;1.67;1.00;;;24.00;22.30;;;;;;2245233;61;20372;-62
2021/03/09 00:33:38;0.00;0.00;0.62;0.00;0.00;0.62;2.13;0.90;;;24.00;22.30;;;;;;2245715;61;20368;-61
2021/03/09 00:36:22;0.00;0.00;0.62;0.00;0.00;0.62;2.03;1.00;;;24.00;22.30;;;;;;2245691;61;20352;-60
2021/03/09 00:39:07;0.00;0.00;0.62;0.00;0.00;0.62;1.90;1.23;;;24.00;22.30;;;;;;2245349;61;20718;-60
2021/03/09 00:41:53;0.00;0.00;0.62;0.00;0.00;0.62;1.90;0.90;;;24.00;22.30;;;;;;2245602;61;20729;-61
2021/03/09 00:44:37;0.00;0.00;0.62;0.00;0.00;0.62;1.40;0.80;;;23.90;22.20;;;;;;2245069;61;20384;-60
2021/03/09 00:47:22;0.00;0.00;0.62;0.00;0.00;0.62;1.67;0.83;;;23.90;22.20;;;;;;2246275;61;20386;-61
2021/03/09 00:50:08;0.00;0.00;0.62;0.00;0.00;0.62;2.40;0.80;;;23.90;22.20;;;;;;2246158;61;20392;-60
2021/03/09 00:52:52;0.00;0.00;0.62;0.00;0.00;0.62;1.60;0.90;;;23.90;22.20;;;;;;2246129;61;20399;-60
2021/03/09 00:55:37;0.00;0.00;0.62;0.00;0.00;0.62;1.87;1.00;;;23.90;22.20;;;;;;2246241;61;20395;-61
2021/03/09 00:58:22;0.00;0.00;0.62;0.00;0.00;0.62;1.20;0.80;;;23.90;22.20;;;;;;2246383;61;20389;-60
2021/03/09 01:01:07;0.00;0.00;0.62;0.00;0.00;0.62;1.93;1.17;;;23.90;22.30;;;;;;2246006;61;20685;-60
2021/03/09 01:03:51;0.00;0.00;0.62;0.00;0.00;0.62;1.50;0.90;;;23.90;22.30;;;;;;2246496;61;20471;-61
2021/03/09 01:06:36;0.00;0.00;0.62;0.00;0.00;0.62;1.27;0.80;;;23.90;22.20;;;;;;2246263;61;20441;-61
2021/03/09 01:09:20;0.00;0.00;0.62;0.00;0.00;0.62;1.20;0.80;;;23.80;22.70;;;;;;2246176;61;20393;-61
2021/03/09 01:12:06;0.00;0.00;0.62;0.00;0.00;0.62;3.30;0.87;;;23.80;22.20;;;;;;2246328;61;20360;-61
2021/03/09 01:14:52;0.00;0.00;0.62;0.00;0.00;0.62;1.40;0.80;;;23.80;22.20;;;;;;2246120;61;20477;-61
2021/03/09 01:17:36;0.00;0.00;0.62;0.00;0.00;0.62;1.83;0.80;;;23.80;22.20;;;;;;2246246;61;20373;-62
2021/03/09 01:20:22;0.00;0.00;0.62;0.00;0.00;0.62;2.33;0.80;;;23.80;22.20;;;;;;2245768;61;20393;-62
2021/03/09 01:23:06;0.00;0.00;0.62;0.00;0.00;0.62;1.67;0.90;;;23.80;22.20;;;;;;2246164;61;20369;-61
2021/03/09 01:25:51;0.00;0.00;0.62;0.00;0.00;0.62;1.53;0.90;;;23.80;22.20;;;;;;2246306;61;20646;-62
2021/03/09 01:28:36;0.00;0.00;0.62;0.00;0.00;0.62;5.43;1.00;;;23.80;22.20;;;;;;2246304;61;20729;-60
2021/03/09 01:31:21;0.00;0.00;0.62;0.00;0.00;0.62;1.40;0.90;;;23.70;22.20;;;;;;2246141;61;20713;-60
2021/03/09 01:34:05;0.00;0.00;0.62;0.00;0.00;0.62;1.30;0.80;;;23.70;22.20;;;;;;2246041;61;20394;-60
2021/03/09 01:36:50;0.00;0.00;0.62;0.00;0.00;0.62;1.20;0.80;;;23.70;22.20;;;;;;2246110;61;20748;-61
2021/03/09 01:39:34;0.00;0.00;0.62;0.00;0.00;0.62;1.40;0.70;;;23.70;22.20;;;;;;2246144;61;20776;-61
2021/03/09 01:42:19;0.00;0.00;0.62;0.00;0.00;0.62;1.30;0.80;;;23.70;22.30;;;;;;2246057;61;20398;-62
2021/03/09 01:45:06;0.00;0.00;0.62;0.00;0.00;0.62;1.40;0.93;;;23.70;22.30;;;;;;2245996;61;20412;-60
2021/03/09 01:47:58;0.00;0.00;0.62;0.00;0.00;0.62;1.50;0.97;;;23.70;22.30;;;;;;2245992;61;20377;-61
2021/03/09 01:50:43;0.00;0.00;0.62;0.00;0.00;0.62;2.00;1.13;;;23.60;22.20;;;;;;2246261;61;20482;-61
2021/03/09 01:53:28;0.00;0.00;0.62;0.00;0.00;0.62;3.63;1.10;;;23.60;22.20;;;;;;2245783;61;20354;-61
2021/03/09 01:56:13;0.00;0.00;0.62;0.00;0.00;0.62;2.27;0.90;;;23.60;22.20;;;;;;2245666;61;20392;-59
2021/03/09 01:59:00;0.00;0.00;0.62;0.00;0.00;0.62;1.40;0.80;;;23.60;22.20;;;;;;2245857;61;20650;-62
2021/03/09 02:01:45;0.00;0.00;0.62;0.00;0.00;0.62;1.90;0.93;;;23.60;22.30;;;;;;2244894;61;20358;-60
2021/03/09 02:04:31;0.00;0.00;0.62;0.00;0.00;0.62;1.33;0.80;;;23.60;22.30;;;;;;2245927;61;20627;-60
2021/03/09 02:07:15;0.00;0.00;0.62;0.00;0.00;0.62;4.70;1.30;;;23.60;22.30;;;;;;2245240;61;20374;-64
2021/03/09 02:10:02;0.00;0.00;0.62;0.00;0.00;0.62;1.30;1.00;;;23.60;22.30;;;;;;2245546;61;20389;-62
2021/03/09 02:13:11;0.00;0.00;0.62;0.00;0.00;0.62;1.50;0.90;;;23.60;22.30;;;;;;2245955;61;20361;-60
2021/03/09 02:16:03;0.00;0.00;0.62;0.00;0.00;0.62;1.60;0.90;;;23.50;22.20;;;;;;2245551;61;20621;-60
2021/03/09 02:18:59;0.00;0.00;0.62;0.00;0.00;0.62;1.40;0.90;;;23.50;22.30;;;;;;2245353;61;20775;-60
2021/03/09 02:22:19;0.00;0.00;0.62;0.00;0.00;0.62;2.17;0.80;;;23.50;22.20;;;;;;2244889;58;20483;-62
2021/03/09 02:25:36;0.00;0.00;0.62;0.00;0.00;0.62;1.97;0.87;;;23.50;22.30;;;;;;2245973;61;20378;-61
2021/03/09 02:28:36;0.00;0.00;0.62;0.00;0.00;0.62;1.63;1.00;;;23.50;22.30;;;;;;2245182;61;20449;-61
2021/03/09 02:31:25;0.00;0.00;0.62;0.00;0.00;0.62;1.40;1.10;;;23.50;22.40;;;;;;2245713;61;20369;-61
2021/03/09 02:34:14;0.00;0.00;0.62;0.00;0.00;0.62;1.77;0.97;;;23.50;22.30;;;;;;2246075;61;20735;-61
2021/03/09 02:37:03;0.00;0.00;0.62;0.00;0.00;0.62;2.60;1.40;;;23.50;22.20;;;;;;2245033;61;20363;-61
2021/03/09 02:39:49;0.00;0.00;0.62;0.00;0.00;0.62;2.17;1.60;;;23.40;22.00;;;;;;2246125;61;20431;-61
2021/03/09 02:42:41;0.00;0.00;0.62;0.00;0.00;0.62;2.43;1.63;;;23.40;21.90;;;;;;2245642;61;20400;-61
2021/03/09 02:45:27;0.00;0.00;0.62;0.00;0.00;0.62;3.77;1.60;;;23.40;21.70;;;;;;2245494;61;20364;-61
2021/03/09 02:48:14;0.00;0.00;0.62;0.00;0.00;0.62;2.03;1.70;;;23.40;21.60;;;;;;2247709;61;20790;-61
2021/03/09 02:50:59;0.00;0.00;0.62;0.00;0.00;0.62;2.27;1.77;;;23.40;21.60;;;;;;2244813;61;20386;-62
2021/03/09 02:53:50;0.00;0.00;0.62;0.00;0.00;0.62;2.43;1.93;;;23.30;21.40;;;;;;2245533;61;20385;-61
2021/03/09 02:56:37;0.00;0.00;0.62;0.00;0.00;0.62;4.37;1.47;;;23.30;21.30;;;;;;2245365;61;20768;-61
2021/03/09 02:59:23;0.00;0.00;0.62;0.00;0.00;0.62;2.20;1.70;;;23.30;21.20;;;;;;2244650;61;20733;-61
2021/03/09 03:02:08;0.00;0.00;0.62;0.00;0.00;0.62;2.10;1.90;;;23.20;21.00;;;;;;2245496;61;20469;-61
2021/03/09 03:04:55;0.00;0.00;0.62;0.00;0.00;0.62;3.10;2.20;;;23.20;21.00;;;;;;2245463;61;20705;-61
2021/03/09 03:07:40;0.00;0.00;0.62;0.00;0.00;0.62;2.50;1.90;;;23.20;21.00;;;;;;2245330;61;20582;-61
2021/03/09 03:10:26;0.00;0.00;0.62;0.00;0.00;0.62;5.00;2.00;;;23.20;21.00;;;;;;2245385;61;20365;-61
2021/03/09 03:13:14;0.00;0.00;0.62;0.00;0.00;0.62;4.40;2.23;;;23.10;20.90;;;;;;2244594;61;20393;-61
2021/03/09 03:16:00;0.00;0.00;0.62;0.00;0.00;0.62;4.17;2.10;;;23.10;20.90;;;;;;2245515;61;20771;-62
2021/03/09 03:18:46;0.00;0.00;0.62;0.00;0.00;0.62;3.00;1.83;;;23.10;20.90;;;;;;2244846;61;20392;-61
2021/03/09 03:21:33;0.00;0.00;0.62;0.00;0.00;0.62;3.40;2.50;;;23.00;20.90;;;;;;2244605;61;20399;-61
2021/03/09 03:24:19;0.00;0.00;0.62;0.00;0.00;0.62;2.77;2.10;;;23.00;20.90;;;;;;2245487;61;20484;-61
2021/03/09 03:27:06;0.00;0.00;0.62;0.00;0.00;0.62;3.57;2.30;;;23.00;20.90;;;;;;2245202;61;20354;-61
2021/03/09 03:29:51;0.00;0.00;0.62;0.00;0.00;0.62;2.83;1.90;;;22.90;20.80;;;;;;2245330;61;20388;-61
2021/03/09 03:32:36;0.00;0.00;0.62;0.00;0.00;0.62;2.20;2.00;;;22.90;20.80;;;;;;2245424;61;20618;-61
2021/03/09 03:35:21;0.00;0.00;0.62;0.00;0.00;0.62;3.23;2.30;;;22.90;20.80;;;;;;2244756;61;20468;-61
2021/03/09 03:38:07;0.00;0.00;0.62;0.00;0.00;0.62;2.60;1.90;;;22.90;20.80;;;;;;2245293;61;20365;-61
2021/03/09 03:40:51;0.00;0.00;0.62;0.00;0.00;0.62;4.60;2.53;;;22.80;20.70;;;;;;2244890;61;20720;-61
2021/03/09 03:43:37;0.00;0.00;0.62;0.00;0.00;0.62;2.80;2.20;;;22.80;20.70;;;;;;2244566;61;20396;-61
2021/03/09 03:46:22;0.00;0.00;0.62;0.00;0.00;0.62;2.80;2.00;;;22.80;20.70;;;;;;2245393;61;20400;-61
2021/03/09 03:49:08;0.00;0.00;0.62;0.00;0.00;0.62;2.83;2.13;;;22.70;20.70;;;;;;2244841;61;20604;-61
2021/03/09 03:52:04;0.00;0.00;0.62;0.00;0.00;0.62;3.67;2.77;;;22.70;20.70;;;;;;2245291;61;20404;-61
2021/03/09 03:54:58;0.00;0.00;0.62;0.00;0.00;0.62;3.40;2.47;;;22.70;20.70;;;;;;2245244;61;20562;-61
2021/03/09 03:57:47;0.00;0.00;0.62;0.00;0.00;0.62;3.80;2.50;;;22.60;20.60;;;;;;2244445;61;20377;-61
2021/03/09 04:00:33;0.00;0.00;0.62;0.00;0.00;0.62;3.27;2.63;;;22.60;20.60;;;;;;2245313;61;20360;-61
2021/03/09 04:03:18;0.00;0.00;0.62;0.00;0.00;0.62;3.03;2.30;;;22.60;20.60;;;;;;2245536;61;20368;-61
2021/03/09 04:06:05;0.00;0.00;0.62;0.00;0.00;0.62;2.53;2.20;;;22.50;20.50;;;;;;2244667;61;20444;-61
2021/03/09 04:08:51;0.00;0.00;0.62;0.00;0.00;0.62;2.83;2.00;;;22.50;20.50;;;;;;2245100;61;20912;-61
2021/03/09 04:11:39;0.00;0.00;0.62;0.00;0.00;0.62;3.17;2.70;;;22.50;20.20;;;;;;2245058;61;20389;-61
2021/03/09 04:14:23;0.00;0.00;0.62;0.00;0.00;0.62;4.30;2.60;;;22.40;19.90;;;;;;2245272;61;20397;-61
2021/03/09 04:17:09;0.00;0.00;0.62;0.00;0.00;0.62;2.47;2.27;;;22.30;19.80;;;;;;2245198;61;20376;-62
2021/03/09 04:19:56;0.00;0.00;0.62;0.00;0.00;0.62;4.10;2.40;;;22.30;19.80;;;;;;2244615;61;20387;-61
2021/03/09 04:22:41;0.00;0.00;0.62;0.00;0.00;0.62;2.77;2.17;;;22.30;19.80;;;;;;2245986;61;20389;-61
2021/03/09 04:25:27;0.00;0.00;0.62;0.00;0.00;0.62;3.23;2.30;;;22.10;19.70;;;;;;2245916;61;20378;-61
2021/03/09 04:28:13;0.00;0.00;0.62;0.00;0.00;0.62;3.33;2.00;;;22.10;19.80;;;;;;2245016;61;20387;-61
2021/03/09 04:30:59;0.00;0.00;0.62;0.00;0.00;0.62;3.40;2.33;;;22.00;19.80;;;;;;2245455;61;20368;-61
2021/03/09 04:33:45;0.00;0.00;0.62;0.00;0.00;0.62;3.20;2.43;;;22.00;19.90;;;;;;2245894;61;20420;-62
2021/03/09 04:36:31;0.00;0.00;0.62;0.00;0.00;0.62;4.10;2.40;;;21.90;19.90;;;;;;2245804;61;20371;-62
2021/03/09 04:39:16;0.00;0.00;0.62;0.00;0.00;0.62;3.70;2.20;;;21.90;20.10;;;;;;2245500;61;20392;-62
2021/03/09 04:42:01;0.00;0.00;0.62;0.00;0.00;0.62;3.37;2.20;;;21.80;20.00;;;;;;2245216;61;20364;-61
2021/03/09 04:44:49;0.00;0.00;0.62;0.00;0.00;0.62;2.93;2.30;;;21.80;20.00;;;;;;2245841;61;20365;-62
2021/03/09 04:47:34;0.00;0.00;0.62;0.00;0.00;0.62;3.30;2.53;;;21.80;20.00;;;;;;2245830;61;20719;-62
2021/03/09 04:50:20;0.00;0.00;0.62;0.00;0.00;0.62;3.80;2.43;;;21.70;20.00;;;;;;2244905;61;20396;-61
2021/03/09 04:53:05;0.00;0.00;0.62;0.00;0.00;0.62;2.30;1.60;;;21.60;19.90;;;;;;2245970;61;20367;-62
2021/03/09 04:55:50;0.00;0.00;0.62;0.00;0.00;0.62;2.87;2.10;;;21.60;19.90;;;;;;2245938;61;20383;-61
2021/03/09 04:58:35;0.00;0.00;0.62;0.00;0.00;0.62;3.13;2.03;;;21.50;19.80;;;;;;2245896;61;20954;-61
2021/03/09 05:01:20;0.00;0.00;0.62;0.00;0.00;0.62;2.80;2.20;;;21.50;19.80;;;;;;2245892;61;20545;-62
2021/03/09 05:04:05;0.00;0.00;0.62;0.00;0.00;0.62;3.07;2.20;;;21.50;19.80;;;;;;2245079;61;20374;-61
2021/03/09 05:06:50;0.00;0.00;0.62;0.00;0.00;0.62;5.80;3.10;;;21.50;19.80;;;;;;2245716;61;20427;-61
2021/03/09 05:09:34;0.00;0.00;0.62;0.00;0.00;0.62;2.87;1.93;;;21.40;19.80;;;;;;2245600;61;20428;-61
2021/03/09 05:12:19;0.00;0.00;0.62;0.00;0.00;0.62;2.53;2.03;;;21.40;19.80;;;;;;2244795;61;20415;-62
2021/03/09 05:15:05;0.00;0.00;0.62;0.00;0.00;0.62;2.20;1.90;;;21.30;19.80;;;;;;2246011;61;20399;-62
2021/03/09 05:17:51;0.00;0.00;0.62;0.00;0.00;0.62;2.40;1.70;;;21.30;20.00;;;;;;2245662;61;20373;-62
2021/03/09 05:20:37;0.00;0.00;0.62;0.00;0.00;0.62;3.70;2.40;;;21.30;20.00;;;;;;2245368;61;20373;-62
2021/03/09 05:23:22;0.00;0.00;0.62;0.00;0.00;0.62;2.40;1.90;;;21.30;20.00;;;;;;2245476;61;20364;-62
2021/03/09 05:26:07;0.00;0.00;0.62;0.00;0.00;0.62;3.63;2.07;;;21.30;20.10;;;;;;2244982;61;20458;-61
2021/03/09 05:28:51;0.00;0.00;0.62;0.00;0.00;0.62;2.37;1.83;;;21.30;20.10;;;;;;2242533;61;20459;-62
2021/03/09 05:31:36;0.00;0.00;0.62;0.00;0.00;0.62;3.70;2.37;;;21.20;20.10;;;;;;2245001;61;20487;-62
2021/03/09 05:34:22;0.00;0.00;0.62;0.00;0.00;0.62;2.50;1.57;;;21.20;20.10;;;;;;2244940;61;20365;-61
2021/03/09 05:37:08;0.00;0.00;0.62;0.00;0.00;0.62;2.77;1.60;;;21.20;20.10;;;;;;2245629;61;20372;-61
2021/03/09 05:39:52;0.00;0.00;0.62;0.00;0.00;0.62;5.43;2.13;;;21.20;20.10;;;;;;2245771;61;20437;-61
2021/03/09 05:42:37;0.00;0.00;0.62;0.00;0.00;0.62;4.10;2.20;;;21.20;20.70;;;;;;2245232;61;20365;-62
2021/03/09 05:45:23;0.00;0.00;0.62;0.00;0.00;0.62;3.20;2.30;;;21.10;20.10;;;;;;2245332;61;20693;-61
2021/03/09 05:48:09;0.00;0.00;0.62;0.00;0.00;0.62;4.93;2.60;;;21.10;20.10;;;;;;2245347;61;20596;-62
2021/03/09 05:50:55;0.00;0.00;0.62;0.00;0.00;0.62;3.40;2.33;;;21.10;20.10;;;;;;2245894;61;20363;-61
2021/03/09 05:53:39;0.00;0.00;0.62;0.00;0.00;0.62;2.77;2.17;;;21.10;20.20;;;;;;2245996;61;20372;-61
2021/03/09 05:56:24;0.00;0.00;0.62;0.00;0.00;0.62;4.90;2.53;;;21.00;20.10;;;;;;2245414;61;20477;-62
2021/03/09 05:59:09;0.00;0.00;0.62;0.00;0.00;0.62;4.20;3.10;;;21.00;20.20;;;;;;2245795;61;20421;-62
2021/03/09 06:01:54;0.00;0.00;0.62;0.00;0.00;0.62;4.80;2.37;;;21.00;20.20;;;;;;2245916;61;20368;-62
2021/03/09 06:04:38;0.00;0.00;0.62;0.00;0.00;0.62;2.87;2.33;;;20.90;20.20;;;;;;2245508;61;20438;-61
2021/03/09 06:07:24;0.00;0.00;0.62;0.00;0.00;0.62;2.87;2.10;;;20.90;20.20;;;;;;2245725;61;20367;-62
2021/03/09 06:10:21;0.00;0.00;0.62;0.00;0.00;0.62;3.93;2.80;;;20.90;20.20;;;;;;2245382;61;20392;-61
2021/03/09 06:13:05;0.00;0.00;0.62;0.00;0.00;0.62;4.40;2.83;;;20.90;20.20;;;;;;2245782;61;20384;-61
2021/03/09 06:15:53;0.00;0.00;0.62;0.00;0.00;0.62;3.13;2.70;;;20.80;20.20;;;;;;2245853;61;20448;-61
2021/03/09 06:18:51;0.00;0.00;0.62;0.00;0.00;0.62;4.60;3.00;;;20.80;20.20;;;;;;2245333;61;20388;-61
2021/03/09 06:21:35;0.00;0.00;0.62;0.00;0.00;0.62;4.37;2.63;;;20.70;20.10;;;;;;2245459;61;20813;-61
2021/03/09 06:24:22;0.00;0.00;0.62;0.00;0.00;0.62;3.30;3.00;;;20.70;20.10;;;;;;2245962;61;20580;-61
2021/03/09 06:27:24;0.00;0.00;0.62;0.00;0.00;0.62;5.03;3.17;;;20.70;20.20;;;;;;2245434;61;20372;-61
2021/03/09 06:30:12;0.00;0.00;0.62;0.00;0.00;0.62;4.23;3.20;;;20.60;20.20;;;;;;2245973;61;20393;-61
2021/03/09 06:32:57;0.00;0.00;0.62;0.00;0.00;0.62;3.97;2.93;;;20.60;20.30;;;;;;2244946;61;20752;-61
2021/03/09 06:35:45;0.00;0.00;0.62;0.00;0.00;0.62;4.30;3.00;;;20.60;20.30;;;;;;2245467;61;20509;-61
2021/03/09 06:38:32;0.00;0.00;0.62;0.00;0.00;0.62;3.60;2.80;;;20.50;20.30;;;;;;2245854;61;20408;-61
2021/03/09 06:41:19;0.00;0.00;0.62;0.00;0.00;0.62;3.63;2.53;;;20.50;20.30;;;;;;2245376;61;20653;-60
2021/03/09 06:44:04;0.00;0.00;0.62;0.00;0.00;0.62;5.03;2.70;;;20.50;20.40;;;;;;2245908;61;20381;-60
2021/03/09 06:46:49;0.00;0.00;0.62;0.00;0.00;0.62;3.60;2.63;;;20.50;20.40;;;;;;2245855;61;20457;-60
2021/03/09 06:49:51;0.00;0.00;0.62;0.00;0.00;0.62;4.40;3.57;;;20.50;20.40;;;;;;2245838;61;20425;-60
2021/03/09 06:52:37;0.00;0.00;0.62;0.00;0.00;0.62;3.77;3.03;;;20.40;20.30;;;;;;2245963;61;20387;-60
2021/03/09 06:55:28;0.00;0.00;0.62;0.00;0.00;0.62;3.87;2.80;;;20.40;20.40;;;;;;2245315;61;20430;-60
2021/03/09 06:58:14;0.00;0.00;0.62;0.00;0.00;0.62;3.90;3.27;;;20.40;20.40;;;;;;2245830;61;20383;-60
2021/03/09 07:01:13;0.00;0.00;0.62;0.00;0.00;0.62;4.37;3.03;;;20.40;20.40;;;;;;2245893;61;20379;-59
2021/03/09 07:03:57;0.00;0.00;0.62;0.00;0.00;0.62;4.00;3.20;;;20.40;20.40;;;;;;2245488;61;20383;-60
2021/03/09 07:06:44;0.00;0.00;0.62;0.00;0.00;0.62;2.80;2.40;;;20.40;20.40;;;;;;2245835;61;20410;-60
2021/03/09 07:09:29;0.00;0.00;0.62;0.00;0.00;0.62;4.33;3.43;;;20.40;20.50;;;;;;2245220;61;20784;-61
2021/03/09 07:12:14;0.00;0.00;0.62;0.00;0.00;0.62;3.87;3.10;;;20.40;20.40;;;;;;2246055;61;20392;-60
2021/03/09 07:15:00;0.00;0.00;0.62;0.00;0.00;0.62;4.23;3.07;;;20.30;20.40;;;;;;2245754;61;20392;-62
2021/03/09 07:17:51;0.00;0.00;0.62;0.00;0.00;0.62;4.20;3.67;;;20.30;20.40;;;;;;2245164;61;20397;-60
2021/03/09 07:20:36;0.00;0.00;0.62;0.00;0.00;0.62;4.03;3.33;;;20.30;20.40;;;;;;2245647;61;20381;-60
2021/03/09 07:23:21;0.00;0.00;0.62;0.00;0.00;0.62;5.47;4.23;;;20.30;20.40;;;;;;2245729;61;20732;-61
2021/03/09 07:26:13;0.00;0.00;0.62;0.00;0.00;0.62;4.70;3.70;;;20.30;20.50;;;;;;2245350;61;20377;-61
2021/03/09 07:29:03;0.00;0.00;0.62;0.00;0.00;0.62;4.70;3.67;;;20.30;20.50;;;;;;2245683;61;20380;-62
2021/03/09 07:31:55;0.00;0.00;0.62;0.00;0.00;0.62;4.30;3.80;;;20.30;20.50;;;;;;2245154;61;20791;-62
2021/03/09 07:34:40;0.00;0.00;0.62;0.00;0.00;0.62;4.47;3.77;;;20.30;20.50;;;;;;2245751;61;20393;-61
2021/03/09 07:37:26;0.00;0.00;0.62;0.00;0.00;0.62;4.77;4.33;;;20.30;20.50;;;;;;2245618;61;20384;-61
2021/03/09 07:40:13;0.00;0.00;0.62;0.00;0.00;0.62;6.33;5.03;;;20.30;20.50;;;;;;2244942;61;20448;-62
2021/03/09 07:42:59;0.00;0.00;0.62;0.00;0.00;0.62;5.00;4.27;;;20.20;20.50;;;;;;2245757;61;20381;-62
2021/03/09 07:45:45;0.00;0.00;0.62;0.00;0.00;0.62;5.00;4.50;;;20.20;20.40;;;;;;2245727;61;20365;-61
2021/03/09 07:48:30;0.00;0.00;0.62;0.00;0.00;0.62;4.80;4.27;;;20.20;20.50;;;;;;2245236;61;20786;-61
2021/03/09 07:51:15;0.00;0.00;0.62;0.00;0.00;0.62;5.40;4.87;;;20.20;20.50;;;;;;2245705;61;20481;-62
2021/03/09 07:54:10;0.00;0.00;0.62;0.00;0.00;0.62;5.23;4.50;;;20.10;20.50;;;;;;2245195;61;20719;-61
2021/03/09 07:57:17;0.00;0.00;0.62;0.00;0.00;0.62;5.33;4.83;;;20.20;20.60;;;;;;2245570;61;20386;-61
2021/03/09 08:00:07;0.00;0.00;0.62;0.00;0.00;0.62;4.87;4.23;;;20.10;20.50;;;;;;2245634;61;20382;-63
2021/03/09 08:02:57;0.00;0.00;0.62;0.00;0.00;0.62;4.87;4.37;;;20.10;20.60;;;;;;2242940;61;20373;-60
2021/03/09 08:05:52;0.00;0.00;0.62;0.00;0.00;0.62;6.00;5.40;;;20.10;20.60;;;;;;2245666;61;20394;-59
2021/03/09 08:08:47;0.00;0.00;0.62;0.00;0.00;0.62;4.73;4.23;;;20.10;20.70;;;;;;2245368;61;20438;-60
2021/03/09 08:11:38;0.00;0.00;0.62;0.00;0.00;0.62;3.93;3.53;;;20.10;20.80;;;;;;2245834;61;20365;-60
2021/03/09 08:14:27;0.00;0.00;0.62;0.00;0.00;0.62;5.47;4.77;;;20.10;20.80;;;;;;2245732;61;20359;-61
2021/03/09 08:17:27;0.00;0.00;0.62;0.00;0.00;0.62;4.57;4.03;;;20.10;20.80;;;;;;2244922;61;20744;-61
2021/03/09 08:20:47;0.00;0.00;0.62;0.00;0.00;0.62;5.30;4.07;;;20.10;20.80;;;;;;2244537;61;20419;-61
2021/03/09 08:23:57;0.00;0.00;0.62;0.00;0.00;0.62;4.33;3.90;;;20.10;20.80;;;;;;2245066;61;20377;-60
2021/03/09 08:26:48;0.00;0.00;0.62;0.00;0.00;0.62;5.67;4.23;;;20.10;20.80;;;;;;2242806;61;20731;-59
2021/03/09 08:29:36;0.00;0.00;0.62;0.00;0.00;0.62;5.93;4.50;;;20.10;20.90;;;;;;2245608;61;20771;-59
2021/03/09 08:32:38;0.00;0.00;0.62;0.00;0.00;0.62;3.73;3.30;;;20.10;20.80;;;;;;2244667;61;20995;-59
2021/03/09 08:35:37;0.00;0.00;0.62;0.00;0.00;0.62;5.33;3.97;;;20.10;20.80;;;;;;2244385;61;20388;-59
2021/03/09 08:38:25;0.00;0.00;0.62;0.00;0.00;0.62;5.30;4.80;;;20.10;20.90;;;;;;2245034;61;20408;-62
2021/03/09 08:41:12;0.00;0.00;0.62;0.00;0.00;0.62;5.00;4.37;;;20.10;20.90;;;;;;2245688;61;20376;-61
2021/03/09 08:44:19;0.00;0.00;0.62;0.00;0.00;0.62;4.30;3.90;;;20.10;20.90;;;;;;2244818;61;20371;-59
2021/03/09 08:47:06;0.00;0.00;0.62;0.00;0.00;0.62;6.40;4.80;;;20.10;20.90;;;;;;2244786;61;20575;-63
2021/03/09 08:49:52;0.00;0.00;0.62;0.00;0.00;0.62;4.83;4.37;;;20.10;21.00;;;;;;2245503;61;20621;-60
2021/03/09 08:52:41;0.00;0.00;0.62;0.00;0.00;0.62;6.40;4.10;;;20.10;21.00;;;;;;2245378;61;20372;-60
2021/03/09 08:55:26;0.00;0.00;0.62;0.00;0.00;0.62;3.40;3.07;;;20.10;21.00;;;;;;2245312;61;20655;-63
2021/03/09 08:58:11;0.00;0.00;0.62;0.00;0.00;0.62;4.70;4.00;;;20.10;21.00;;;;;;2245443;61;20605;-60
2021/03/09 09:00:56;0.00;0.00;0.62;0.00;0.00;0.62;4.10;3.33;;;20.10;21.00;;;;;;2244718;61;20361;-62
2021/03/09 09:03:41;0.00;0.00;0.62;0.00;0.00;0.62;4.70;3.63;;;20.10;21.00;;;;;;2245629;61;20412;-60
2021/03/09 09:06:27;0.00;0.00;0.62;0.00;0.00;0.62;4.27;3.10;;;20.10;21.00;;;;;;2245546;61;20363;-59
2021/03/09 09:09:12;0.00;0.00;0.62;0.00;0.00;0.62;3.03;2.73;;;20.10;21.20;;;;;;2245017;61;20491;-60
2021/03/09 09:11:57;0.00;0.00;0.62;0.00;0.00;0.62;3.53;2.93;;;20.10;21.20;;;;;;2246275;61;20571;-62
2021/03/09 09:14:42;0.00;0.00;0.62;0.00;0.00;0.62;3.60;2.67;;;20.20;21.30;;;;;;2245973;61;20387;-63
2021/03/09 09:17:27;0.00;0.00;0.62;0.00;0.00;0.62;2.77;2.20;;;20.20;21.30;;;;;;2245703;61;20812;-63
2021/03/09 09:20:16;0.00;0.00;0.62;0.00;0.00;0.62;3.13;2.43;;;20.20;21.30;;;;;;2242623;61;20388;-60
2021/03/09 09:23:07;0.00;0.00;0.62;0.00;0.00;0.62;2.83;2.40;;;20.30;21.40;;;;;;2245292;61;20367;-59
2021/03/09 09:25:55;0.00;0.00;0.62;0.00;0.00;0.62;2.57;2.37;;;20.20;21.40;;;;;;2246240;61;20396;-59
2021/03/09 09:28:44;0.00;0.00;0.62;0.00;0.00;0.62;2.87;2.53;;;20.30;21.40;;;;;;2245015;61;20385;-60
2021/03/09 09:31:29;0.00;0.00;0.62;0.00;0.00;0.62;2.80;2.23;;;20.30;21.40;;;;;;2245910;61;20693;-60
2021/03/09 09:34:13;0.00;0.00;0.62;0.00;0.00;0.62;2.33;1.87;;;20.30;21.40;;;;;;2246215;61;20590;-60
2021/03/09 09:36:58;0.00;0.00;0.62;0.00;0.00;0.62;2.40;2.20;;;20.30;21.40;;;;;;2245270;61;20365;-62
2021/03/09 09:39:43;0.00;0.00;0.62;0.00;0.00;0.62;3.50;2.90;;;20.30;21.50;;;;;;2245949;61;20410;-61
2021/03/09 09:42:27;0.00;0.00;0.62;0.00;0.00;0.62;2.57;2.23;;;20.40;21.50;;;;;;2246163;61;20367;-59
2021/03/09 09:45:16;0.00;0.00;0.62;0.00;0.00;0.62;3.00;2.70;;;20.40;21.60;;;;;;2245460;61;20415;-63
2021/03/09 09:48:01;0.00;0.00;0.62;0.00;0.00;0.62;3.87;3.53;;;20.40;21.50;;;;;;2246085;61;20372;-60
2021/03/09 09:50:47;0.00;0.00;0.62;0.00;0.00;0.62;5.47;3.63;;;20.40;21.50;;;;;;2245073;61;20444;-61
2021/03/09 09:53:34;0.00;0.00;0.62;0.00;0.00;0.62;3.43;3.13;;;20.50;22.20;;;;;;2245499;61;20369;-60
2021/03/09 09:56:24;0.00;0.00;0.62;0.00;0.00;0.62;3.10;2.80;;;20.50;21.60;;;;;;2246064;61;20802;-62
2021/03/09 09:59:08;0.00;0.00;0.62;0.00;0.00;0.62;3.23;2.93;;;20.50;21.60;;;;;;2245330;61;20385;-63
2021/03/09 10:01:53;0.00;0.00;0.62;0.00;0.00;0.62;3.57;2.97;;;20.50;21.60;;;;;;2245847;61;20400;-61
2021/03/09 10:04:38;0.00;0.00;0.62;0.00;0.00;0.62;4.40;3.07;;;20.50;21.60;;;;;;2245956;61;20375;-62
2021/03/09 10:07:23;0.00;0.00;0.62;0.00;0.00;0.62;3.60;3.10;;;20.50;21.60;;;;;;2245725;61;20369;-59
2021/03/09 10:10:09;0.00;0.00;0.62;0.00;0.00;0.62;3.77;2.97;;;20.50;21.60;;;;;;2245615;61;20383;-62
2021/03/09 10:12:54;0.00;0.00;0.62;0.00;0.00;0.62;4.03;3.17;;;20.60;21.70;;;;;;2245597;61;20360;-61
2021/03/09 10:15:46;0.00;0.00;0.62;0.00;0.00;0.62;3.70;2.80;;;20.60;21.70;;;;;;2245840;61;20445;-61
2021/03/09 10:18:33;0.00;0.00;0.62;0.00;0.00;0.62;5.07;3.47;;;20.60;21.60;;;;;;2245721;61;20387;-60
2021/03/09 10:21:21;0.00;0.00;0.62;0.00;0.00;0.62;3.80;2.90;;;20.60;21.60;;;;;;2245688;61;20393;-59
2021/03/09 10:24:07;0.00;0.00;0.62;0.00;0.00;0.62;2.93;2.60;;;20.60;21.60;;;;;;2245858;61;20408;-61
2021/03/09 10:26:52;0.00;0.00;0.62;0.00;0.00;0.62;3.57;3.03;;;20.60;21.50;;;;;;2245841;61;20362;-60
2021/03/09 10:29:36;0.00;0.00;0.62;0.00;0.00;0.62;3.00;2.70;;;20.60;21.50;;;;;;2245620;61;20406;-61
2021/03/09 10:32:21;0.00;0.00;0.62;0.00;0.00;0.62;3.13;2.83;;;20.70;21.50;;;;;;2246041;61;20622;-61
2021/03/09 10:35:07;0.00;0.00;0.62;0.00;0.00;0.62;4.43;3.37;;;20.70;21.50;;;;;;2245549;61;20597;-61
2021/03/09 10:37:52;0.00;0.00;0.62;0.00;0.00;0.62;2.83;2.43;;;20.70;21.50;;;;;;2245611;61;20444;-59
2021/03/09 10:40:36;0.00;0.00;0.62;0.00;0.00;0.62;2.53;2.33;;;20.70;21.50;;;;;;2245919;61;20451;-63
2021/03/09 10:43:40;0.00;0.00;0.62;0.00;0.00;0.62;3.00;2.37;;;20.70;21.50;;;;;;2245520;61;20406;-61
2021/03/09 10:46:25;0.00;0.00;0.62;0.00;0.00;0.62;3.17;2.50;;;20.70;21.50;;;;;;2245295;61;20377;-61
2021/03/09 10:49:09;0.00;0.00;0.62;0.00;0.00;0.62;2.83;2.47;;;20.70;21.40;;;;;;2246020;61;20428;-60
2021/03/09 10:52:03;0.00;0.00;0.62;0.00;0.00;0.62;2.57;2.30;;;20.70;21.40;;;;;;2245673;61;20361;-58
2021/03/09 10:54:47;0.00;0.00;0.62;0.00;0.00;0.62;2.97;2.17;;;20.70;21.40;;;;;;2245921;61;20709;-62
2021/03/09 10:57:32;0.00;0.00;0.62;0.00;0.00;0.62;3.40;2.70;;;20.70;21.40;;;;;;2245505;61;20408;-59
2021/03/09 11:00:19;0.00;0.00;0.62;0.00;0.00;0.62;2.50;2.27;;;20.70;21.40;;;;;;2245651;61;20360;-64